sensor_id;sensor_type;location;lat;lon;timestamp;P1;durP1;ratioP1;P2;durP2;ratioP2
13202;SDS011;6666;51.626;7.530;2022-09-21T00:01:20;4.10;;;3.05;;
13202;SDS011;6666;51.626;7.530;2022-09-21T00:03:51;5.63;;;3.20;;
13202;SDS011;6666;51.626;7.530;2022-09-21T00:06:20;5.45;;;3.38;;
13202;SDS011;6666;51.626;7.530;2022-09-21T00:08:50;5.97;;;3.17;;
13202;SDS011;6666;51.626;7.530;2022-09-21T00:11:19;7.80;;;3.20;;
13202;SDS011;6666;51.626;7.530;2022-09-21T00:13:52;4.63;;;3.10;;
13202;SDS011;6666;51.626;7.530;2022-09-21T00:16:21;6.60;;;3.40;;
13202;SDS011;6666;51.626;7.530;2022-09-21T00:18:49;7.40;;;3.53;;
13202;SDS011;6666;51.626;7.530;2022-09-21T00:21:18;4.88;;;3.30;;
13202;SDS011;6666;51.626;7.530;2022-09-21T00:23:48;5.33;;;3.20;;
13202;SDS011;6666;51.626;7.530;2022-09-21T00:26:17;5.57;;;3.10;;
13202;SDS011;6666;51.626;7.530;2022-09-21T00:28:46;7.10;;;3.67;;
13202;SDS011;6666;51.626;7.530;2022-09-21T00:31:20;4.63;;;3.50;;
13202;SDS011;6666;51.626;7.530;2022-09-21T00:33:49;5.38;;;3.70;;
13202;SDS011;6666;51.626;7.530;2022-09-21T00:36:18;5.40;;;3.15;;
13202;SDS011;6666;51.626;7.530;2022-09-21T00:38:48;4.85;;;3.47;;
13202;SDS011;6666;51.626;7.530;2022-09-21T00:41:18;4.68;;;3.30;;
13202;SDS011;6666;51.626;7.530;2022-09-21T00:43:47;7.65;;;3.40;;
13202;SDS011;6666;51.626;7.530;2022-09-21T00:46:36;7.40;;;3.30;;
13202;SDS011;6666;51.626;7.530;2022-09-21T00:49:06;5.00;;;3.70;;
13202;SDS011;6666;51.626;7.530;2022-09-21T00:51:35;6.88;;;3.90;;
13202;SDS011;6666;51.626;7.530;2022-09-21T00:54:10;8.18;;;4.22;;
13202;SDS011;6666;51.626;7.530;2022-09-21T00:56:46;6.22;;;3.72;;
13202;SDS011;6666;51.626;7.530;2022-09-21T00:59:15;5.88;;;3.40;;
13202;SDS011;6666;51.626;7.530;2022-09-21T01:01:49;5.40;;;3.90;;
13202;SDS011;6666;51.626;7.530;2022-09-21T01:04:17;4.50;;;3.30;;
13202;SDS011;6666;51.626;7.530;2022-09-21T01:06:46;4.20;;;2.80;;
13202;SDS011;6666;51.626;7.530;2022-09-21T01:09:15;4.35;;;2.90;;
13202;SDS011;6666;51.626;7.530;2022-09-21T01:11:47;5.55;;;3.40;;
13202;SDS011;6666;51.626;7.530;2022-09-21T01:14:32;3.95;;;2.80;;
13202;SDS011;6666;51.626;7.530;2022-09-21T01:17:23;6.40;;;3.08;;
13202;SDS011;6666;51.626;7.530;2022-09-21T01:20:04;4.20;;;2.40;;
13202;SDS011;6666;51.626;7.530;2022-09-21T01:22:47;5.45;;;2.90;;
13202;SDS011;6666;51.626;7.530;2022-09-21T01:25:32;5.30;;;2.60;;
13202;SDS011;6666;51.626;7.530;2022-09-21T01:28:14;4.32;;;2.60;;
13202;SDS011;6666;51.626;7.530;2022-09-21T01:30:56;3.70;;;2.67;;
13202;SDS011;6666;51.626;7.530;2022-09-21T01:33:29;3.90;;;2.73;;
13202;SDS011;6666;51.626;7.530;2022-09-21T01:36:03;2.70;;;2.20;;
13202;SDS011;6666;51.626;7.530;2022-09-21T01:38:37;4.80;;;2.35;;
13202;SDS011;6666;51.626;7.530;2022-09-21T01:41:10;2.33;;;2.13;;
13202;SDS011;6666;51.626;7.530;2022-09-21T01:43:41;2.70;;;2.22;;
13202;SDS011;6666;51.626;7.530;2022-09-21T01:46:16;3.05;;;2.35;;
13202;SDS011;6666;51.626;7.530;2022-09-21T01:48:47;3.40;;;2.40;;
13202;SDS011;6666;51.626;7.530;2022-09-21T01:51:20;2.60;;;2.00;;
13202;SDS011;6666;51.626;7.530;2022-09-21T01:53:53;5.20;;;2.10;;
13202;SDS011;6666;51.626;7.530;2022-09-21T01:56:26;5.32;;;2.70;;
13202;SDS011;6666;51.626;7.530;2022-09-21T01:59:00;3.50;;;2.70;;
13202;SDS011;6666;51.626;7.530;2022-09-21T02:01:42;3.75;;;2.58;;
13202;SDS011;6666;51.626;7.530;2022-09-21T02:04:13;4.53;;;2.40;;
13202;SDS011;6666;51.626;7.530;2022-09-21T02:06:42;4.00;;;2.70;;
13202;SDS011;6666;51.626;7.530;2022-09-21T02:09:13;6.78;;;3.00;;
13202;SDS011;6666;51.626;7.530;2022-09-21T02:11:42;6.30;;;3.25;;
13202;SDS011;6666;51.626;7.530;2022-09-21T02:14:11;3.92;;;2.65;;
13202;SDS011;6666;51.626;7.530;2022-09-21T02:16:43;6.70;;;3.50;;
13202;SDS011;6666;51.626;7.530;2022-09-21T02:19:24;8.27;;;3.60;;
13202;SDS011;6666;51.626;7.530;2022-09-21T02:22:04;6.82;;;3.60;;
13202;SDS011;6666;51.626;7.530;2022-09-21T02:24:37;6.07;;;3.63;;
13202;SDS011;6666;51.626;7.530;2022-09-21T02:27:11;7.40;;;3.85;;
13202;SDS011;6666;51.626;7.530;2022-09-21T02:29:46;7.85;;;3.40;;
13202;SDS011;6666;51.626;7.530;2022-09-21T02:32:22;6.55;;;3.10;;
13202;SDS011;6666;51.626;7.530;2022-09-21T02:34:59;7.38;;;3.47;;
13202;SDS011;6666;51.626;7.530;2022-09-21T02:37:32;5.60;;;3.40;;
13202;SDS011;6666;51.626;7.530;2022-09-21T02:40:05;5.07;;;3.10;;
13202;SDS011;6666;51.626;7.530;2022-09-21T02:42:44;5.30;;;3.30;;
13202;SDS011;6666;51.626;7.530;2022-09-21T02:45:17;3.85;;;2.90;;
13202;SDS011;6666;51.626;7.530;2022-09-21T02:47:50;6.93;;;3.05;;
13202;SDS011;6666;51.626;7.530;2022-09-21T02:50:25;7.68;;;2.95;;
13202;SDS011;6666;51.626;7.530;2022-09-21T02:52:59;4.40;;;2.90;;
13202;SDS011;6666;51.626;7.530;2022-09-21T02:55:30;4.13;;;3.05;;
13202;SDS011;6666;51.626;7.530;2022-09-21T02:58:00;4.63;;;2.85;;
13202;SDS011;6666;51.626;7.530;2022-09-21T03:00:32;4.55;;;3.40;;
13202;SDS011;6666;51.626;7.530;2022-09-21T03:03:14;5.25;;;3.00;;
13202;SDS011;6666;51.626;7.530;2022-09-21T03:05:44;7.40;;;3.30;;
13202;SDS011;6666;51.626;7.530;2022-09-21T03:08:15;3.58;;;2.60;;
13202;SDS011;6666;51.626;7.530;2022-09-21T03:10:44;6.40;;;2.80;;
13202;SDS011;6666;51.626;7.530;2022-09-21T03:13:12;5.53;;;3.10;;
13202;SDS011;6666;51.626;7.530;2022-09-21T03:15:41;3.40;;;2.83;;
13202;SDS011;6666;51.626;7.530;2022-09-21T03:18:11;5.20;;;2.80;;
13202;SDS011;6666;51.626;7.530;2022-09-21T03:20:43;4.60;;;2.70;;
13202;SDS011;6666;51.626;7.530;2022-09-21T03:23:12;4.80;;;2.95;;
13202;SDS011;6666;51.626;7.530;2022-09-21T03:25:42;4.50;;;3.28;;
13202;SDS011;6666;51.626;7.530;2022-09-21T03:28:11;4.60;;;3.47;;
13202;SDS011;6666;51.626;7.530;2022-09-21T03:30:41;3.92;;;2.95;;
13202;SDS011;6666;51.626;7.530;2022-09-21T03:33:10;4.15;;;2.90;;
13202;SDS011;6666;51.626;7.530;2022-09-21T03:44:12;4.82;;;3.00;;
13202;SDS011;6666;51.626;7.530;2022-09-21T03:46:43;3.10;;;2.70;;
13202;SDS011;6666;51.626;7.530;2022-09-21T03:49:11;4.03;;;2.90;;
13202;SDS011;6666;51.626;7.530;2022-09-21T03:51:39;4.63;;;3.00;;
13202;SDS011;6666;51.626;7.530;2022-09-21T03:54:07;4.70;;;3.50;;
13202;SDS011;6666;51.626;7.530;2022-09-21T03:56:36;5.05;;;2.80;;
13202;SDS011;6666;51.626;7.530;2022-09-21T03:59:04;4.53;;;2.70;;
13202;SDS011;6666;51.626;7.530;2022-09-21T04:01:40;4.38;;;3.10;;
13202;SDS011;6666;51.626;7.530;2022-09-21T04:04:09;4.95;;;3.33;;
13202;SDS011;6666;51.626;7.530;2022-09-21T04:06:37;4.43;;;2.83;;
13202;SDS011;6666;51.626;7.530;2022-09-21T04:09:06;4.40;;;3.20;;
13202;SDS011;6666;51.626;7.530;2022-09-21T04:11:34;6.97;;;3.42;;
13202;SDS011;6666;51.626;7.530;2022-09-21T04:14:04;7.60;;;3.20;;
13202;SDS011;6666;51.626;7.530;2022-09-21T04:16:32;5.80;;;3.20;;
13202;SDS011;6666;51.626;7.530;2022-09-21T04:19:01;7.88;;;3.50;;
13202;SDS011;6666;51.626;7.530;2022-09-21T04:21:30;6.20;;;3.38;;
13202;SDS011;6666;51.626;7.530;2022-09-21T04:23:59;6.22;;;2.90;;
13202;SDS011;6666;51.626;7.530;2022-09-21T04:26:28;6.60;;;3.60;;
13202;SDS011;6666;51.626;7.530;2022-09-21T04:28:58;11.00;;;3.28;;
13202;SDS011;6666;51.626;7.530;2022-09-21T04:31:27;6.10;;;4.18;;
13202;SDS011;6666;51.626;7.530;2022-09-21T04:33:56;5.87;;;3.50;;
13202;SDS011;6666;51.626;7.530;2022-09-21T04:36:27;6.30;;;3.15;;
13202;SDS011;6666;51.626;7.530;2022-09-21T04:38:59;4.30;;;2.70;;
13202;SDS011;6666;51.626;7.530;2022-09-21T04:41:28;4.70;;;3.30;;
13202;SDS011;6666;51.626;7.530;2022-09-21T04:43:56;5.63;;;3.40;;
13202;SDS011;6666;51.626;7.530;2022-09-21T04:46:24;8.52;;;3.65;;
13202;SDS011;6666;51.626;7.530;2022-09-21T04:48:53;4.50;;;2.97;;
13202;SDS011;6666;51.626;7.530;2022-09-21T04:51:21;4.10;;;3.00;;
13202;SDS011;6666;51.626;7.530;2022-09-21T04:53:50;7.80;;;3.00;;
13202;SDS011;6666;51.626;7.530;2022-09-21T04:56:19;3.75;;;3.22;;
13202;SDS011;6666;51.626;7.530;2022-09-21T04:58:47;7.38;;;3.10;;
13202;SDS011;6666;51.626;7.530;2022-09-21T05:01:15;5.55;;;2.97;;
13202;SDS011;6666;51.626;7.530;2022-09-21T05:03:44;3.95;;;3.10;;
13202;SDS011;6666;51.626;7.530;2022-09-21T05:06:12;10.10;;;3.40;;
13202;SDS011;6666;51.626;7.530;2022-09-21T05:08:40;7.57;;;3.40;;
13202;SDS011;6666;51.626;7.530;2022-09-21T05:11:27;11.73;;;3.60;;
13202;SDS011;6666;51.626;7.530;2022-09-21T05:13:55;3.88;;;3.47;;
13202;SDS011;6666;51.626;7.530;2022-09-21T05:16:23;5.55;;;3.58;;
13202;SDS011;6666;51.626;7.530;2022-09-21T05:18:52;5.10;;;3.70;;
13202;SDS011;6666;51.626;7.530;2022-09-21T05:21:21;4.40;;;3.38;;
13202;SDS011;6666;51.626;7.530;2022-09-21T05:23:49;8.55;;;3.97;;
13202;SDS011;6666;51.626;7.530;2022-09-21T05:26:18;6.85;;;4.20;;
13202;SDS011;6666;51.626;7.530;2022-09-21T05:28:48;5.68;;;3.55;;
13202;SDS011;6666;51.626;7.530;2022-09-21T05:31:22;6.43;;;3.80;;
13202;SDS011;6666;51.626;7.530;2022-09-21T05:34:01;6.38;;;3.38;;
13202;SDS011;6666;51.626;7.530;2022-09-21T05:36:38;3.80;;;3.10;;
13202;SDS011;6666;51.626;7.530;2022-09-21T05:39:13;4.80;;;3.20;;
13202;SDS011;6666;51.626;7.530;2022-09-21T05:41:41;4.97;;;3.57;;
13202;SDS011;6666;51.626;7.530;2022-09-21T05:44:12;5.38;;;3.80;;
13202;SDS011;6666;51.626;7.530;2022-09-21T05:46:41;8.03;;;4.10;;
13202;SDS011;6666;51.626;7.530;2022-09-21T05:49:22;6.13;;;4.20;;
13202;SDS011;6666;51.626;7.530;2022-09-21T05:52:00;7.50;;;4.40;;
13202;SDS011;6666;51.626;7.530;2022-09-21T05:54:38;10.25;;;4.60;;
13202;SDS011;6666;51.626;7.530;2022-09-21T05:57:20;6.82;;;4.20;;
13202;SDS011;6666;51.626;7.530;2022-09-21T06:00:00;7.17;;;4.10;;
13202;SDS011;6666;51.626;7.530;2022-09-21T06:05:43;7.35;;;4.75;;
13202;SDS011;6666;51.626;7.530;2022-09-21T06:08:11;14.35;;;5.93;;
13202;SDS011;6666;51.626;7.530;2022-09-21T06:10:40;11.50;;;5.50;;
13202;SDS011;6666;51.626;7.530;2022-09-21T06:13:08;12.50;;;5.70;;
13202;SDS011;6666;51.626;7.530;2022-09-21T06:15:38;11.25;;;5.32;;
13202;SDS011;6666;51.626;7.530;2022-09-21T06:18:07;10.48;;;5.88;;
13202;SDS011;6666;51.626;7.530;2022-09-21T06:20:43;6.63;;;4.35;;
13202;SDS011;6666;51.626;7.530;2022-09-21T06:23:12;7.28;;;3.70;;
13202;SDS011;6666;51.626;7.530;2022-09-21T06:25:40;5.13;;;3.30;;
13202;SDS011;6666;51.626;7.530;2022-09-21T06:28:09;6.63;;;3.60;;
13202;SDS011;6666;51.626;7.530;2022-09-21T06:30:40;8.77;;;3.50;;
13202;SDS011;6666;51.626;7.530;2022-09-21T06:33:10;8.65;;;3.92;;
13202;SDS011;6666;51.626;7.530;2022-09-21T06:35:38;5.00;;;3.63;;
13202;SDS011;6666;51.626;7.530;2022-09-21T06:38:06;5.57;;;3.75;;
13202;SDS011;6666;51.626;7.530;2022-09-21T06:40:35;7.75;;;4.03;;
13202;SDS011;6666;51.626;7.530;2022-09-21T06:43:03;4.93;;;3.43;;
13202;SDS011;6666;51.626;7.530;2022-09-21T06:45:32;9.70;;;4.13;;
13202;SDS011;6666;51.626;7.530;2022-09-21T06:48:02;6.00;;;3.80;;
13202;SDS011;6666;51.626;7.530;2022-09-21T06:50:30;7.35;;;4.00;;
13202;SDS011;6666;51.626;7.530;2022-09-21T06:52:59;7.38;;;4.18;;
13202;SDS011;6666;51.626;7.530;2022-09-21T06:55:28;8.35;;;4.22;;
13202;SDS011;6666;51.626;7.530;2022-09-21T06:58:00;6.97;;;4.40;;
13202;SDS011;6666;51.626;7.530;2022-09-21T07:00:28;7.97;;;4.05;;
13202;SDS011;6666;51.626;7.530;2022-09-21T07:02:57;7.45;;;3.60;;
13202;SDS011;6666;51.626;7.530;2022-09-21T07:05:27;6.90;;;3.92;;
13202;SDS011;6666;51.626;7.530;2022-09-21T07:07:56;7.63;;;3.78;;
13202;SDS011;6666;51.626;7.530;2022-09-21T07:10:25;8.57;;;3.70;;
13202;SDS011;6666;51.626;7.530;2022-09-21T07:12:54;7.07;;;3.78;;
13202;SDS011;6666;51.626;7.530;2022-09-21T07:15:22;6.60;;;4.13;;
13202;SDS011;6666;51.626;7.530;2022-09-21T07:17:51;6.40;;;4.38;;
13202;SDS011;6666;51.626;7.530;2022-09-21T07:20:32;9.90;;;4.75;;
13202;SDS011;6666;51.626;7.530;2022-09-21T07:23:00;6.78;;;4.68;;
13202;SDS011;6666;51.626;7.530;2022-09-21T07:25:36;7.40;;;4.38;;
13202;SDS011;6666;51.626;7.530;2022-09-21T07:28:05;9.55;;;4.30;;
13202;SDS011;6666;51.626;7.530;2022-09-21T07:30:34;9.25;;;4.80;;
13202;SDS011;6666;51.626;7.530;2022-09-21T07:33:03;10.68;;;4.63;;
13202;SDS011;6666;51.626;7.530;2022-09-21T07:35:33;14.00;;;5.50;;
13202;SDS011;6666;51.626;7.530;2022-09-21T07:38:02;12.07;;;5.90;;
13202;SDS011;6666;51.626;7.530;2022-09-21T07:40:32;9.70;;;5.20;;
13202;SDS011;6666;51.626;7.530;2022-09-21T07:43:02;10.90;;;5.23;;
13202;SDS011;6666;51.626;7.530;2022-09-21T07:45:30;10.52;;;5.90;;
13202;SDS011;6666;51.626;7.530;2022-09-21T07:48:01;10.75;;;4.97;;
13202;SDS011;6666;51.626;7.530;2022-09-21T07:50:30;7.65;;;4.10;;
13202;SDS011;6666;51.626;7.530;2022-09-21T07:53:01;8.20;;;4.40;;
13202;SDS011;6666;51.626;7.530;2022-09-21T07:55:29;8.30;;;4.65;;
13202;SDS011;6666;51.626;7.530;2022-09-21T07:57:58;9.02;;;5.30;;
13202;SDS011;6666;51.626;7.530;2022-09-21T08:00:43;8.43;;;4.57;;
13202;SDS011;6666;51.626;7.530;2022-09-21T08:03:12;13.20;;;6.70;;
13202;SDS011;6666;51.626;7.530;2022-09-21T08:05:41;17.85;;;7.22;;
13202;SDS011;6666;51.626;7.530;2022-09-21T08:08:10;10.35;;;5.32;;
13202;SDS011;6666;51.626;7.530;2022-09-21T08:10:38;10.17;;;4.90;;
13202;SDS011;6666;51.626;7.530;2022-09-21T08:13:07;12.00;;;4.33;;
13202;SDS011;6666;51.626;7.530;2022-09-21T08:15:35;9.02;;;4.30;;
13202;SDS011;6666;51.626;7.530;2022-09-21T08:18:15;8.75;;;4.47;;
13202;SDS011;6666;51.626;7.530;2022-09-21T08:20:43;9.45;;;4.70;;
13202;SDS011;6666;51.626;7.530;2022-09-21T08:23:22;10.40;;;4.72;;
13202;SDS011;6666;51.626;7.530;2022-09-21T08:25:51;8.85;;;4.55;;
13202;SDS011;6666;51.626;7.530;2022-09-21T08:28:19;7.82;;;4.80;;
13202;SDS011;6666;51.626;7.530;2022-09-21T08:30:48;8.18;;;4.65;;
13202;SDS011;6666;51.626;7.530;2022-09-21T08:33:16;13.27;;;5.25;;
13202;SDS011;6666;51.626;7.530;2022-09-21T08:35:50;7.80;;;4.80;;
13202;SDS011;6666;51.626;7.530;2022-09-21T08:38:18;10.73;;;5.07;;
13202;SDS011;6666;51.626;7.530;2022-09-21T08:40:48;11.00;;;5.90;;
13202;SDS011;6666;51.626;7.530;2022-09-21T08:43:20;15.13;;;5.90;;
13202;SDS011;6666;51.626;7.530;2022-09-21T08:45:56;8.57;;;5.05;;
13202;SDS011;6666;51.626;7.530;2022-09-21T08:48:27;9.20;;;5.22;;
13202;SDS011;6666;51.626;7.530;2022-09-21T08:51:03;12.95;;;6.35;;
13202;SDS011;6666;51.626;7.530;2022-09-21T08:53:35;9.43;;;4.80;;
13202;SDS011;6666;51.626;7.530;2022-09-21T08:56:09;9.55;;;5.20;;
13202;SDS011;6666;51.626;7.530;2022-09-21T08:58:38;8.02;;;4.43;;
13202;SDS011;6666;51.626;7.530;2022-09-21T09:01:13;7.60;;;5.10;;
13202;SDS011;6666;51.626;7.530;2022-09-21T09:04:08;9.18;;;5.50;;
13202;SDS011;6666;51.626;7.530;2022-09-21T09:06:55;11.68;;;5.15;;
13202;SDS011;6666;51.626;7.530;2022-09-21T09:09:45;11.07;;;4.75;;
13202;SDS011;6666;51.626;7.530;2022-09-21T09:12:30;6.65;;;3.85;;
13202;SDS011;6666;51.626;7.530;2022-09-21T09:15:13;10.55;;;3.22;;
13202;SDS011;6666;51.626;7.530;2022-09-21T09:18:06;7.20;;;3.10;;
13202;SDS011;6666;51.626;7.530;2022-09-21T09:20:38;6.90;;;2.95;;
13202;SDS011;6666;51.626;7.530;2022-09-21T09:23:10;8.02;;;3.78;;
13202;SDS011;6666;51.626;7.530;2022-09-21T09:25:44;6.15;;;2.80;;
13202;SDS011;6666;51.626;7.530;2022-09-21T09:28:20;6.13;;;3.20;;
13202;SDS011;6666;51.626;7.530;2022-09-21T09:30:57;4.07;;;1.70;;
13202;SDS011;6666;51.626;7.530;2022-09-21T09:33:29;4.78;;;2.40;;
13202;SDS011;6666;51.626;7.530;2022-09-21T09:36:06;5.63;;;2.25;;
13202;SDS011;6666;51.626;7.530;2022-09-21T09:38:38;3.30;;;2.20;;
13202;SDS011;6666;51.626;7.530;2022-09-21T09:41:23;5.00;;;2.20;;
13202;SDS011;6666;51.626;7.530;2022-09-21T09:44:10;3.60;;;2.00;;
13202;SDS011;6666;51.626;7.530;2022-09-21T09:46:48;6.75;;;2.20;;
13202;SDS011;6666;51.626;7.530;2022-09-21T09:49:32;4.70;;;1.97;;
13202;SDS011;6666;51.626;7.530;2022-09-21T09:52:07;6.43;;;2.10;;
13202;SDS011;6666;51.626;7.530;2022-09-21T09:54:38;4.93;;;1.25;;
13202;SDS011;6666;51.626;7.530;2022-09-21T09:57:06;5.68;;;1.70;;
13202;SDS011;6666;51.626;7.530;2022-09-21T09:59:40;5.07;;;1.90;;
13202;SDS011;6666;51.626;7.530;2022-09-21T10:02:20;4.00;;;1.30;;
13202;SDS011;6666;51.626;7.530;2022-09-21T10:04:53;4.85;;;1.52;;
13202;SDS011;6666;51.626;7.530;2022-09-21T10:07:35;5.50;;;1.95;;
13202;SDS011;6666;51.626;7.530;2022-09-21T10:10:22;3.75;;;1.20;;
13202;SDS011;6666;51.626;7.530;2022-09-21T10:12:56;3.05;;;1.40;;
13202;SDS011;6666;51.626;7.530;2022-09-21T10:15:33;5.90;;;1.50;;
13202;SDS011;6666;51.626;7.530;2022-09-21T10:18:14;5.80;;;1.00;;
13202;SDS011;6666;51.626;7.530;2022-09-21T10:20:55;7.85;;;1.17;;
13202;SDS011;6666;51.626;7.530;2022-09-21T10:23:26;4.20;;;1.00;;
13202;SDS011;6666;51.626;7.530;2022-09-21T10:25:57;2.10;;;1.00;;
13202;SDS011;6666;51.626;7.530;2022-09-21T10:28:29;8.70;;;1.70;;
13202;SDS011;6666;51.626;7.530;2022-09-21T10:31:15;6.25;;;1.30;;
13202;SDS011;6666;51.626;7.530;2022-09-21T10:33:48;6.18;;;1.20;;
13202;SDS011;6666;51.626;7.530;2022-09-21T10:36:23;5.93;;;1.30;;
13202;SDS011;6666;51.626;7.530;2022-09-21T10:39:09;2.40;;;1.10;;
13202;SDS011;6666;51.626;7.530;2022-09-21T10:41:49;2.00;;;1.27;;
13202;SDS011;6666;51.626;7.530;2022-09-21T10:44:19;5.00;;;1.00;;
13202;SDS011;6666;51.626;7.530;2022-09-21T10:46:51;4.87;;;1.10;;
13202;SDS011;6666;51.626;7.530;2022-09-21T10:49:26;3.60;;;0.90;;
13202;SDS011;6666;51.626;7.530;2022-09-21T10:51:55;4.68;;;0.90;;
13202;SDS011;6666;51.626;7.530;2022-09-21T10:54:25;6.50;;;2.45;;
13202;SDS011;6666;51.626;7.530;2022-09-21T10:56:56;9.20;;;3.20;;
13202;SDS011;6666;51.626;7.530;2022-09-21T10:59:29;2.70;;;1.00;;
13202;SDS011;6666;51.626;7.530;2022-09-21T11:02:00;2.30;;;1.20;;
13202;SDS011;6666;51.626;7.530;2022-09-21T11:04:50;2.70;;;0.90;;
13202;SDS011;6666;51.626;7.530;2022-09-21T11:07:23;2.90;;;0.90;;
13202;SDS011;6666;51.626;7.530;2022-09-21T11:09:57;2.80;;;0.80;;
13202;SDS011;6666;51.626;7.530;2022-09-21T11:12:36;8.03;;;1.47;;
13202;SDS011;6666;51.626;7.530;2022-09-21T11:15:13;5.15;;;1.67;;
13202;SDS011;6666;51.626;7.530;2022-09-21T11:17:50;3.53;;;1.20;;
13202;SDS011;6666;51.626;7.530;2022-09-21T11:20:29;2.20;;;1.10;;
13202;SDS011;6666;51.626;7.530;2022-09-21T11:23:08;2.30;;;0.95;;
13202;SDS011;6666;51.626;7.530;2022-09-21T11:25:46;5.30;;;1.50;;
13202;SDS011;6666;51.626;7.530;2022-09-21T11:28:20;3.30;;;1.10;;
13202;SDS011;6666;51.626;7.530;2022-09-21T11:30:56;2.78;;;1.30;;
13202;SDS011;6666;51.626;7.530;2022-09-21T11:33:46;6.40;;;1.73;;
13202;SDS011;6666;51.626;7.530;2022-09-21T11:36:32;3.78;;;1.20;;
13202;SDS011;6666;51.626;7.530;2022-09-21T11:39:13;4.90;;;1.50;;
13202;SDS011;6666;51.626;7.530;2022-09-21T11:41:53;4.03;;;1.10;;
13202;SDS011;6666;51.626;7.530;2022-09-21T11:44:43;3.30;;;1.00;;
13202;SDS011;6666;51.626;7.530;2022-09-21T11:47:34;3.40;;;1.00;;
13202;SDS011;6666;51.626;7.530;2022-09-21T11:50:22;3.00;;;0.90;;
13202;SDS011;6666;51.626;7.530;2022-09-21T11:53:15;4.20;;;0.90;;
13202;SDS011;6666;51.626;7.530;2022-09-21T11:55:58;1.00;;;0.70;;
13202;SDS011;6666;51.626;7.530;2022-09-21T11:58:46;1.67;;;0.80;;
13202;SDS011;6666;51.626;7.530;2022-09-21T12:01:25;1.70;;;0.80;;
13202;SDS011;6666;51.626;7.530;2022-09-21T12:04:11;2.90;;;0.90;;
13202;SDS011;6666;51.626;7.530;2022-09-21T12:07:03;2.58;;;1.10;;
13202;SDS011;6666;51.626;7.530;2022-09-21T12:09:51;1.97;;;0.60;;
13202;SDS011;6666;51.626;7.530;2022-09-21T12:12:28;2.92;;;0.70;;
13202;SDS011;6666;51.626;7.530;2022-09-21T12:15:04;2.50;;;0.82;;
13202;SDS011;6666;51.626;7.530;2022-09-21T12:17:43;3.50;;;0.83;;
13202;SDS011;6666;51.626;7.530;2022-09-21T12:20:19;1.30;;;0.50;;
13202;SDS011;6666;51.626;7.530;2022-09-21T12:22:57;2.63;;;0.80;;
13202;SDS011;6666;51.626;7.530;2022-09-21T12:25:30;2.90;;;0.70;;
13202;SDS011;6666;51.626;7.530;2022-09-21T12:28:04;2.47;;;1.10;;
13202;SDS011;6666;51.626;7.530;2022-09-21T12:30:38;4.85;;;1.33;;
13202;SDS011;6666;51.626;7.530;2022-09-21T12:33:11;1.58;;;0.50;;
13202;SDS011;6666;51.626;7.530;2022-09-21T12:35:46;5.90;;;0.70;;
13202;SDS011;6666;51.626;7.530;2022-09-21T12:38:20;1.98;;;0.70;;
13202;SDS011;6666;51.626;7.530;2022-09-21T12:40:51;2.25;;;0.80;;
13202;SDS011;6666;51.626;7.530;2022-09-21T12:43:25;1.50;;;0.70;;
13202;SDS011;6666;51.626;7.530;2022-09-21T12:46:00;2.90;;;0.80;;
13202;SDS011;6666;51.626;7.530;2022-09-21T12:48:33;3.95;;;1.10;;
13202;SDS011;6666;51.626;7.530;2022-09-21T12:51:06;2.88;;;1.30;;
13202;SDS011;6666;51.626;7.530;2022-09-21T12:53:42;2.47;;;0.80;;
13202;SDS011;6666;51.626;7.530;2022-09-21T12:56:19;3.90;;;0.80;;
13202;SDS011;6666;51.626;7.530;2022-09-21T12:58:59;3.50;;;0.80;;
13202;SDS011;6666;51.626;7.530;2022-09-21T13:01:41;4.70;;;0.63;;
13202;SDS011;6666;51.626;7.530;2022-09-21T13:04:24;2.08;;;0.80;;
13202;SDS011;6666;51.626;7.530;2022-09-21T13:07:22;2.10;;;0.60;;
13202;SDS011;6666;51.626;7.530;2022-09-21T13:10:13;1.70;;;0.65;;
13202;SDS011;6666;51.626;7.530;2022-09-21T13:12:45;1.70;;;0.73;;
13202;SDS011;6666;51.626;7.530;2022-09-21T13:15:22;2.30;;;0.60;;
13202;SDS011;6666;51.626;7.530;2022-09-21T13:17:59;4.40;;;0.70;;
13202;SDS011;6666;51.626;7.530;2022-09-21T13:20:33;3.05;;;0.60;;
13202;SDS011;6666;51.626;7.530;2022-09-21T13:23:03;1.90;;;0.65;;
13202;SDS011;6666;51.626;7.530;2022-09-21T13:25:33;1.90;;;0.88;;
13202;SDS011;6666;51.626;7.530;2022-09-21T13:28:04;3.30;;;0.65;;
13202;SDS011;6666;51.626;7.530;2022-09-21T13:30:45;2.70;;;0.80;;
13202;SDS011;6666;51.626;7.530;2022-09-21T13:33:31;3.90;;;0.70;;
13202;SDS011;6666;51.626;7.530;2022-09-21T13:39:11;4.45;;;0.60;;
13202;SDS011;6666;51.626;7.530;2022-09-21T13:41:44;2.70;;;0.80;;
13202;SDS011;6666;51.626;7.530;2022-09-21T13:44:36;2.70;;;0.70;;
13202;SDS011;6666;51.626;7.530;2022-09-21T13:47:11;1.50;;;0.80;;
13202;SDS011;6666;51.626;7.530;2022-09-21T13:49:44;1.90;;;0.80;;
13202;SDS011;6666;51.626;7.530;2022-09-21T13:52:26;3.65;;;0.90;;
13202;SDS011;6666;51.626;7.530;2022-09-21T13:55:22;1.58;;;0.70;;
13202;SDS011;6666;51.626;7.530;2022-09-21T13:57:55;2.63;;;0.77;;
13202;SDS011;6666;51.626;7.530;2022-09-21T14:00:30;2.70;;;1.00;;
13202;SDS011;6666;51.626;7.530;2022-09-21T14:03:02;5.30;;;1.30;;
13202;SDS011;6666;51.626;7.530;2022-09-21T14:05:34;2.05;;;0.93;;
13202;SDS011;6666;51.626;7.530;2022-09-21T14:08:16;3.50;;;0.70;;
13202;SDS011;6666;51.626;7.530;2022-09-21T14:10:49;2.90;;;1.00;;
13202;SDS011;6666;51.626;7.530;2022-09-21T14:13:24;1.67;;;0.80;;
13202;SDS011;6666;51.626;7.530;2022-09-21T14:27:57;6.32;;;3.40;;
13202;SDS011;6666;51.626;7.530;2022-09-21T14:30:31;5.82;;;1.20;;
13202;SDS011;6666;51.626;7.530;2022-09-21T14:33:14;3.20;;;1.70;;
13202;SDS011;6666;51.626;7.530;2022-09-21T14:35:50;3.13;;;1.42;;
13202;SDS011;6666;51.626;7.530;2022-09-21T14:38:21;1.90;;;0.80;;
13202;SDS011;6666;51.626;7.530;2022-09-21T14:40:53;2.08;;;0.82;;
13202;SDS011;6666;51.626;7.530;2022-09-21T14:43:26;3.80;;;1.30;;
13202;SDS011;6666;51.626;7.530;2022-09-21T14:46:07;1.30;;;0.57;;
13202;SDS011;6666;51.626;7.530;2022-09-21T14:48:46;1.80;;;0.70;;
13202;SDS011;6666;51.626;7.530;2022-09-21T14:51:25;5.05;;;0.85;;
13202;SDS011;6666;51.626;7.530;2022-09-21T14:54:19;2.80;;;0.70;;
13202;SDS011;6666;51.626;7.530;2022-09-21T14:57:07;3.42;;;1.10;;
13202;SDS011;6666;51.626;7.530;2022-09-21T15:00:00;1.90;;;0.90;;
13202;SDS011;6666;51.626;7.530;2022-09-21T15:02:41;3.08;;;0.80;;
13202;SDS011;6666;51.626;7.530;2022-09-21T15:05:13;1.60;;;0.70;;
13202;SDS011;6666;51.626;7.530;2022-09-21T15:07:52;1.90;;;0.70;;
13202;SDS011;6666;51.626;7.530;2022-09-21T15:10:57;3.75;;;0.80;;
13202;SDS011;6666;51.626;7.530;2022-09-21T15:13:37;2.45;;;0.80;;
13202;SDS011;6666;51.626;7.530;2022-09-21T15:16:20;1.20;;;0.80;;
13202;SDS011;6666;51.626;7.530;2022-09-21T15:19:01;2.10;;;0.70;;
13202;SDS011;6666;51.626;7.530;2022-09-21T15:21:39;2.63;;;1.00;;
13202;SDS011;6666;51.626;7.530;2022-09-21T15:24:15;2.45;;;0.77;;
13202;SDS011;6666;51.626;7.530;2022-09-21T15:27:00;2.10;;;0.63;;
13202;SDS011;6666;51.626;7.530;2022-09-21T15:29:32;1.90;;;0.70;;
13202;SDS011;6666;51.626;7.530;2022-09-21T15:32:01;3.70;;;0.82;;
13202;SDS011;6666;51.626;7.530;2022-09-21T15:34:31;4.90;;;0.87;;
13202;SDS011;6666;51.626;7.530;2022-09-21T15:37:06;3.60;;;1.00;;
13202;SDS011;6666;51.626;7.530;2022-09-21T15:39:41;2.55;;;0.70;;
13202;SDS011;6666;51.626;7.530;2022-09-21T15:42:14;2.70;;;1.10;;
13202;SDS011;6666;51.626;7.530;2022-09-21T15:44:46;1.92;;;0.77;;
13202;SDS011;6666;51.626;7.530;2022-09-21T15:47:20;2.00;;;1.00;;
13202;SDS011;6666;51.626;7.530;2022-09-21T15:49:52;2.67;;;1.00;;
13202;SDS011;6666;51.626;7.530;2022-09-21T15:52:25;1.05;;;0.60;;
13202;SDS011;6666;51.626;7.530;2022-09-21T15:54:58;3.03;;;1.33;;
13202;SDS011;6666;51.626;7.530;2022-09-21T15:57:30;3.17;;;1.00;;
13202;SDS011;6666;51.626;7.530;2022-09-21T16:00:06;1.40;;;0.85;;
13202;SDS011;6666;51.626;7.530;2022-09-21T16:02:50;2.45;;;1.00;;
13202;SDS011;6666;51.626;7.530;2022-09-21T16:05:33;2.50;;;0.93;;
13202;SDS011;6666;51.626;7.530;2022-09-21T16:08:20;4.05;;;0.90;;
13202;SDS011;6666;51.626;7.530;2022-09-21T16:11:12;2.70;;;0.90;;